Pagrindinis puslapis
METAR-TAF:

METAR-TAF

Oro uostai :

Longjyrbienas, Norvegija

platuma: 78-15N, ilguma: 015-28E, Aukštis: 2 m

Dabartinis oras

Ataskaita buvo paskelbta 19 minutes, ne 09:50 UTC
Vėjas 9 kt iš Rytų/Pietryčių
Temperatūra -11°C
Drėgmė 56%
Slėgis 1031 hPa
Matomumas 10 km arba daugiau
Mažai debesys ne aukštis 3000 ft
Išsisklaidę debesys ne aukštis 15000 ft

METAR: ENSB 070950Z 11009KT 9999 FEW030 SCT150 M11/M18 Q1031 NOSIG RMK WIND 1400FT VRB01KT

Laikas: 11:09 (10:09 UTC)

Prognozė

Prognozė galioja nuo 07 metu 06 UTC su 08 metu 06 UTC
Vėjas 9 kt iš Rytų/Pietryčių
Matomumas 10 km arba daugiau
Mažai debesys ne aukštis 3000 ft
Laikinai
nuo 07 metu 06 UTC su 07 metu 13 UTC
Vėjas 10 kt iš Šiaurės Rytų

TAF: ENSB 0706/0806 12009KT 9999 FEW030 TEMPO 0706/0713 04010KT

Orai ataskaitas ir orų prognozės (METAR, TAF).

turimą stotys yra geltonos ir raudonos taškus žemėlapyje.

Perkelti pele per norėdami pamatyti stoties vardą.

Tada spustelėkite, norėdami matyti oro stebėjimo ir prognozės.

Norėdami pakeisti žemėlapį: spustelėkite ant žalios mygtukų su juodo kryžiaus žemyn,; žalią mygtuką su brūkšneliu, jei norite nutolinti; arba žalių rodyklių gretimoms žemėlapius.


METAR-TAF: